Yasemin — 9HA2114 — position and weather

sailwx.info

Track history (hours):
 
Tides and Currents Weather Stations Pressure Air Temp Water Temp Dewpoint Dewpoint Depression Visibility Wind Speed Wind Dir Waves Ship Positions

Yasemin

Last reported at 2018-Jun-21 11:12 UTC. Time now 2018-Jun-25 01:57 UTC.
Position N 44°52' E 036°49'.

Length 105 m; draft 5.9 m.

Type: Cargo ship. MMSI: 249988000.

Date/timePositionNaut miles runAvg speedWind from/ knotsBaromVisibWave heightAir tempDewpointWater temp
2018-Jun-21 11:12N 44°52' E 036°49'0 0.0
2018-Jun-21 11:00N 44°52' E 036°49'  
2018-Jun-16 03:47N 44°13' E 036°32'5010.8
2018-Jun-15 23:11N 43°37' E 035°45'212.0
2018-Jun-15 23:00N 43°36' E 035°42'1011.8
2018-Jun-15 22:08N 43°32' E 035°29'111.9
2018-Jun-15 22:00N 43°32' E 035°27'612.0
2018-Jun-15 21:30N 43°30' E 035°19'612.3
2018-Jun-15 21:00N 43°28' E 035°11'612.4
2018-Jun-15 20:30N 43°26' E 035°03'6111.9
2018-Jun-15 15:21N 42°56' E 033°50'412.4
2018-Jun-15 15:00N 42°53' E 033°46'2912.5
2018-Jun-15 12:42N 42°34' E 033°16'3812.7
2018-Jun-15 09:44N 42°10' E 032°37'613.0
2018-Jun-15 09:17N 42°06' E 032°31'7512.9
2018-Jun-15 03:27N 41°41' E 030°56'612.4
2018-Jun-15 02:57N 41°39' E 030°48'712.6
2018-Jun-15 02:25N 41°37' E 030°39'3512.7
2018-Jun-14 23:42N 41°27' E 029°55'312.7
2018-Jun-14 23:27N 41°26' E 029°51'612.7
2018-Jun-14 23:00N 41°23' E 029°44'612.6
2018-Jun-14 22:30N 41°21' E 029°36'3610.4
2018-Jun-14 19:02N 40°58' E 028°60'521.4
2018-Jun-14 18:49N 40°54' E 028°57'1031.1
2018-Jun-14 18:29N 40°44' E 028°55'611.4
2018-Jun-14 18:00N 40°42' E 029°02'17 0.8
2018-Jun-13 22:11N 40°58' E 028°55'0 0.0
2018-Jun-13 21:53N 40°58' E 028°55'0 0.0
2018-Jun-13 21:29N 40°58' E 028°55'0 0.0
2018-Jun-13 20:53N 40°58' E 028°55'0 0.0
2018-Jun-13 20:02N 40°58' E 028°55'0 0.2
2018-Jun-13 19:56N 40°58' E 028°55'1 3.3
2018-Jun-13 19:30N 40°57' E 028°57'4 7.5
2018-Jun-13 18:59N 40°54' E 028°56'611.2
2018-Jun-13 18:30N 40°51' E 028°49'611.6
2018-Jun-13 18:00N 40°50' E 028°42'611.6
2018-Jun-13 17:30N 40°50' E 028°34'1311.8
2018-Jun-13 16:24N 40°47' E 028°17'8911.7
2018-Jun-13 08:46N 40°14' E 026°29'410.7
2018-Jun-13 08:21N 40°12' E 026°23'11 9.5
2018-Jun-13 07:13N 40°02' E 026°17'210.9
2018-Jun-13 07:00N 40°01' E 026°14'7 8.8
2018-Jun-13 06:15N 39°57' E 026°07'3 7.7
2018-Jun-13 05:48N 39°54' E 026°08'  
Track history (hours):
 
Tides and Currents Weather Stations Pressure Air Temp Water Temp Dewpoint Dewpoint Depression Visibility Wind Speed Wind Dir Waves Ship Positions

Yasemin

Last reported at 2018-Jun-21 11:12 UTC. Time now 2018-Jun-25 01:57 UTC.
Position N 44°52' E 036°49'.

Length 105 m; draft 5.9 m.

Type: Cargo ship. MMSI: 249988000.

Date/timePositionNaut miles runAvg speedWind from/ knotsBaromVisibWave heightAir tempDewpointWater temp
2018-Jun-21 11:12N 44°52' E 036°49'0 0.0
2018-Jun-21 11:00N 44°52' E 036°49'  
2018-Jun-16 03:47N 44°13' E 036°32'5010.8
2018-Jun-15 23:11N 43°37' E 035°45'212.0
2018-Jun-15 23:00N 43°36' E 035°42'1011.8
2018-Jun-15 22:08N 43°32' E 035°29'111.9
2018-Jun-15 22:00N 43°32' E 035°27'612.0
2018-Jun-15 21:30N 43°30' E 035°19'612.3
2018-Jun-15 21:00N 43°28' E 035°11'612.4
2018-Jun-15 20:30N 43°26' E 035°03'6111.9
2018-Jun-15 15:21N 42°56' E 033°50'412.4
2018-Jun-15 15:00N 42°53' E 033°46'2912.5
2018-Jun-15 12:42N 42°34' E 033°16'3812.7
2018-Jun-15 09:44N 42°10' E 032°37'613.0
2018-Jun-15 09:17N 42°06' E 032°31'7512.9
2018-Jun-15 03:27N 41°41' E 030°56'612.4
2018-Jun-15 02:57N 41°39' E 030°48'712.6
2018-Jun-15 02:25N 41°37' E 030°39'3512.7
2018-Jun-14 23:42N 41°27' E 029°55'312.7
2018-Jun-14 23:27N 41°26' E 029°51'612.7
2018-Jun-14 23:00N 41°23' E 029°44'612.6
2018-Jun-14 22:30N 41°21' E 029°36'3610.4
2018-Jun-14 19:02N 40°58' E 028°60'521.4
2018-Jun-14 18:49N 40°54' E 028°57'1031.1
2018-Jun-14 18:29N 40°44' E 028°55'611.4
2018-Jun-14 18:00N 40°42' E 029°02'17 0.8
2018-Jun-13 22:11N 40°58' E 028°55'0 0.0
2018-Jun-13 21:53N 40°58' E 028°55'0 0.0
2018-Jun-13 21:29N 40°58' E 028°55'0 0.0
2018-Jun-13 20:53N 40°58' E 028°55'0 0.0
2018-Jun-13 20:02N 40°58' E 028°55'0 0.2
2018-Jun-13 19:56N 40°58' E 028°55'1 3.3
2018-Jun-13 19:30N 40°57' E 028°57'4 7.5
2018-Jun-13 18:59N 40°54' E 028°56'611.2
2018-Jun-13 18:30N 40°51' E 028°49'611.6
2018-Jun-13 18:00N 40°50' E 028°42'611.6
2018-Jun-13 17:30N 40°50' E 028°34'1311.8
2018-Jun-13 16:24N 40°47' E 028°17'8911.7
2018-Jun-13 08:46N 40°14' E 026°29'410.7
2018-Jun-13 08:21N 40°12' E 026°23'11 9.5
2018-Jun-13 07:13N 40°02' E 026°17'210.9
2018-Jun-13 07:00N 40°01' E 026°14'7 8.8
2018-Jun-13 06:15N 39°57' E 026°07'3 7.7
2018-Jun-13 05:48N 39°54' E 026°08'  

Dump ship's entire track history